sensor_id;sensor_type;location;lat;lon;timestamp;pressure;altitude;pressure_sealevel;temperature;humidity
22582;BME280;47125;48.542;9.052;2023-03-01T00:03:33;96640.59;;;0.84;64.51
22582;BME280;47125;48.542;9.052;2023-03-01T00:13:36;96635.50;;;0.83;64.11
22582;BME280;47125;48.542;9.052;2023-03-01T00:23:40;96639.16;;;0.90;64.00
22582;BME280;47125;48.542;9.052;2023-03-01T00:33:43;96630.91;;;0.77;64.32
22582;BME280;47125;48.542;9.052;2023-03-01T00:43:50;96626.66;;;0.34;65.89
22582;BME280;47125;48.542;9.052;2023-03-01T00:53:55;96613.81;;;0.23;66.58
22582;BME280;47125;48.542;9.052;2023-03-01T01:03:59;96608.34;;;0.08;67.58
22582;BME280;47125;48.542;9.052;2023-03-01T01:14:02;96601.00;;;0.20;67.17
22582;BME280;47125;48.542;9.052;2023-03-01T01:24:07;96583.25;;;0.22;66.59
22582;BME280;47125;48.542;9.052;2023-03-01T01:34:12;96587.41;;;-0.10;68.18
22582;BME280;47125;48.542;9.052;2023-03-01T01:44:19;96588.50;;;0.14;67.37
22582;BME280;47125;48.542;9.052;2023-03-01T01:54:23;96584.78;;;-0.10;68.18
22582;BME280;47125;48.542;9.052;2023-03-01T02:04:29;96575.56;;;-0.14;69.10
22582;BME280;47125;48.542;9.052;2023-03-01T02:14:32;96557.97;;;0.13;68.44
22582;BME280;47125;48.542;9.052;2023-03-01T02:24:38;96555.28;;;-0.04;69.74
22582;BME280;47125;48.542;9.052;2023-03-01T02:34:46;96540.19;;;0.57;67.69
22582;BME280;47125;48.542;9.052;2023-03-01T02:44:49;96527.56;;;0.76;66.96
22582;BME280;47125;48.542;9.052;2023-03-01T02:54:54;96512.44;;;0.62;67.05
22582;BME280;47125;48.542;9.052;2023-03-01T03:04:58;96508.47;;;0.66;67.04
22582;BME280;47125;48.542;9.052;2023-03-01T03:15:02;96501.13;;;0.86;66.65
22582;BME280;47125;48.542;9.052;2023-03-01T03:25:09;96504.06;;;1.07;65.87
22582;BME280;47125;48.542;9.052;2023-03-01T03:35:14;96501.09;;;0.53;67.68
22582;BME280;47125;48.542;9.052;2023-03-01T03:45:16;96488.13;;;0.44;68.35
22582;BME280;47125;48.542;9.052;2023-03-01T03:55:21;96485.03;;;0.81;67.42
22582;BME280;47125;48.542;9.052;2023-03-01T04:05:23;96477.94;;;0.65;67.94
22582;BME280;47125;48.542;9.052;2023-03-01T04:15:27;96470.88;;;0.82;67.21
22582;BME280;47125;48.542;9.052;2023-03-01T04:25:31;96477.13;;;0.73;67.55
22582;BME280;47125;48.542;9.052;2023-03-01T04:35:35;96463.50;;;0.61;68.19
22582;BME280;47125;48.542;9.052;2023-03-01T04:45:38;96467.59;;;0.64;67.68
22582;BME280;47125;48.542;9.052;2023-03-01T04:55:42;96464.81;;;0.65;68.68
22582;BME280;47125;48.542;9.052;2023-03-01T05:05:45;96447.06;;;0.67;68.87
22582;BME280;47125;48.542;9.052;2023-03-01T05:15:53;96441.97;;;0.49;69.58
22582;BME280;47125;48.542;9.052;2023-03-01T05:25:57;96449.19;;;0.39;70.00
22582;BME280;47125;48.542;9.052;2023-03-01T05:36:02;96446.06;;;0.20;70.68
22582;BME280;47125;48.542;9.052;2023-03-01T05:46:05;96452.47;;;0.57;69.61
22582;BME280;47125;48.542;9.052;2023-03-01T05:56:08;96448.53;;;0.37;70.64
22582;BME280;47125;48.542;9.052;2023-03-01T06:06:12;96443.59;;;0.34;70.02
22582;BME280;47125;48.542;9.052;2023-03-01T06:16:16;96443.75;;;0.81;68.76
22582;BME280;47125;48.542;9.052;2023-03-01T06:26:18;96423.69;;;0.96;68.93
22582;BME280;47125;48.542;9.052;2023-03-01T06:36:22;96445.41;;;0.98;68.32
22582;BME280;47125;48.542;9.052;2023-03-01T06:46:25;96443.94;;;0.88;68.07
22582;BME280;47125;48.542;9.052;2023-03-01T06:56:29;96439.47;;;1.04;67.61
22582;BME280;47125;48.542;9.052;2023-03-01T07:06:31;96437.63;;;1.21;66.93
22582;BME280;47125;48.542;9.052;2023-03-01T07:16:36;96431.53;;;1.21;67.22
22582;BME280;47125;48.542;9.052;2023-03-01T07:26:38;96427.28;;;1.11;66.93
22582;BME280;47125;48.542;9.052;2023-03-01T07:36:43;96424.84;;;1.10;67.17
22582;BME280;47125;48.542;9.052;2023-03-01T07:46:46;96402.44;;;1.22;66.69
22582;BME280;47125;48.542;9.052;2023-03-01T07:56:51;96395.75;;;1.81;65.21
22582;BME280;47125;48.542;9.052;2023-03-01T08:06:55;96390.53;;;2.04;64.94
22582;BME280;47125;48.542;9.052;2023-03-01T08:16:59;96390.97;;;2.15;64.05
22582;BME280;47125;48.542;9.052;2023-03-01T08:27:04;96389.94;;;1.94;64.29
22582;BME280;47125;48.542;9.052;2023-03-01T08:37:08;96392.56;;;2.62;62.94
22582;BME280;47125;48.542;9.052;2023-03-01T08:47:11;96389.19;;;2.53;62.03
22582;BME280;47125;48.542;9.052;2023-03-01T08:57:14;96384.22;;;2.36;62.48
22582;BME280;47125;48.542;9.052;2023-03-01T09:07:17;96370.25;;;2.87;61.33
22582;BME280;47125;48.542;9.052;2023-03-01T09:17:21;96359.25;;;2.84;61.15
22582;BME280;47125;48.542;9.052;2023-03-01T09:27:23;96356.44;;;2.85;60.27
22582;BME280;47125;48.542;9.052;2023-03-01T09:37:27;96344.63;;;3.61;59.20
22582;BME280;47125;48.542;9.052;2023-03-01T09:47:30;96348.13;;;3.47;59.45
22582;BME280;47125;48.542;9.052;2023-03-01T09:57:36;96349.56;;;3.64;58.78
22582;BME280;47125;48.542;9.052;2023-03-01T10:07:41;96339.31;;;3.54;58.42
22582;BME280;47125;48.542;9.052;2023-03-01T10:17:49;96321.56;;;4.26;58.06
22582;BME280;47125;48.542;9.052;2023-03-01T10:27:54;96313.31;;;4.64;56.75
22582;BME280;47125;48.542;9.052;2023-03-01T10:37:59;96318.31;;;5.14;55.31
22582;BME280;47125;48.542;9.052;2023-03-01T10:48:05;96297.28;;;5.40;55.37
22582;BME280;47125;48.542;9.052;2023-03-01T10:58:15;96293.66;;;6.15;53.62
22582;BME280;47125;48.542;9.052;2023-03-01T11:08:28;96284.88;;;6.15;53.31
22582;BME280;47125;48.542;9.052;2023-03-01T11:18:36;96257.78;;;7.36;51.66
22582;BME280;47125;48.542;9.052;2023-03-01T11:28:50;96235.03;;;6.89;50.68
22582;BME280;47125;48.542;9.052;2023-03-01T11:38:55;96231.53;;;7.52;49.07
22582;BME280;47125;48.542;9.052;2023-03-01T11:49:01;96223.13;;;8.18;48.76
22582;BME280;47125;48.542;9.052;2023-03-01T12:09:41;96185.00;;;10.52;44.65
22582;BME280;47125;48.542;9.052;2023-03-01T12:19:58;96164.69;;;10.63;42.02
22582;BME280;47125;48.542;9.052;2023-03-01T12:30:09;96151.78;;;10.83;42.73
22582;BME280;47125;48.542;9.052;2023-03-01T12:40:22;96141.28;;;11.73;40.35
22582;BME280;47125;48.542;9.052;2023-03-01T12:50:32;96112.44;;;11.46;39.55
22582;BME280;47125;48.542;9.052;2023-03-01T13:00:40;96095.91;;;11.94;40.02
22582;BME280;47125;48.542;9.052;2023-03-01T13:10:48;96087.34;;;11.64;39.88
22582;BME280;47125;48.542;9.052;2023-03-01T13:20:52;96084.16;;;13.10;37.37
22582;BME280;47125;48.542;9.052;2023-03-01T13:30:57;96077.47;;;14.57;35.65
22582;BME280;47125;48.542;9.052;2023-03-01T13:41:00;96070.91;;;11.72;38.40
22582;BME280;47125;48.542;9.052;2023-03-01T13:51:04;96082.03;;;12.14;38.83
22582;BME280;47125;48.542;9.052;2023-03-01T14:01:18;96069.22;;;12.54;37.04
22582;BME280;47125;48.542;9.052;2023-03-01T14:11:28;96069.88;;;12.61;38.15
22582;BME280;47125;48.542;9.052;2023-03-01T14:21:34;96079.06;;;12.49;38.20
22582;BME280;47125;48.542;9.052;2023-03-01T14:31:39;96086.50;;;11.92;39.22
22582;BME280;47125;48.542;9.052;2023-03-01T14:41:53;96089.31;;;10.61;41.30
22582;BME280;47125;48.542;9.052;2023-03-01T14:52:00;96083.81;;;9.63;42.97
22582;BME280;47125;48.542;9.052;2023-03-01T15:02:04;96080.56;;;9.49;44.07
22582;BME280;47125;48.542;9.052;2023-03-01T15:22:29;96086.97;;;9.30;44.08
22582;BME280;47125;48.542;9.052;2023-03-01T15:32:32;96074.88;;;8.86;44.78
22582;BME280;47125;48.542;9.052;2023-03-01T15:42:36;96037.53;;;8.20;46.50
22582;BME280;47125;48.542;9.052;2023-03-01T15:52:40;96034.53;;;8.35;46.59
22582;BME280;47125;48.542;9.052;2023-03-01T16:02:44;96038.50;;;7.83;47.48
22582;BME280;47125;48.542;9.052;2023-03-01T16:12:47;96052.09;;;7.74;48.23
22582;BME280;47125;48.542;9.052;2023-03-01T16:22:51;96051.16;;;7.38;48.93
22582;BME280;47125;48.542;9.052;2023-03-01T16:32:54;96061.41;;;7.34;48.74
22582;BME280;47125;48.542;9.052;2023-03-01T16:42:58;96060.38;;;7.04;49.56
22582;BME280;47125;48.542;9.052;2023-03-01T16:53:02;96071.31;;;6.76;50.03
22582;BME280;47125;48.542;9.052;2023-03-01T17:03:06;96092.59;;;6.70;50.02
22582;BME280;47125;48.542;9.052;2023-03-01T17:13:08;96097.72;;;6.58;50.39
22582;BME280;47125;48.542;9.052;2023-03-01T17:23:12;96107.41;;;6.39;51.14
22582;BME280;47125;48.542;9.052;2023-03-01T17:33:15;96108.88;;;5.89;52.02
22582;BME280;47125;48.542;9.052;2023-03-01T17:43:19;96131.06;;;5.62;52.97
22582;BME280;47125;48.542;9.052;2023-03-01T17:53:22;96127.44;;;6.16;52.05
22582;BME280;47125;48.542;9.052;2023-03-01T18:03:25;96125.00;;;5.88;52.85
22582;BME280;47125;48.542;9.052;2023-03-01T18:13:28;96129.88;;;5.84;52.99
22582;BME280;47125;48.542;9.052;2023-03-01T18:23:32;96127.81;;;5.60;52.85
22582;BME280;47125;48.542;9.052;2023-03-01T18:33:35;96130.47;;;5.40;54.02
22582;BME280;47125;48.542;9.052;2023-03-01T18:43:39;96115.97;;;5.30;53.90
22582;BME280;47125;48.542;9.052;2023-03-01T18:53:41;96122.88;;;5.24;54.22
22582;BME280;47125;48.542;9.052;2023-03-01T19:03:46;96117.59;;;5.24;54.47
22582;BME280;47125;48.542;9.052;2023-03-01T19:13:48;96102.72;;;5.30;54.51
22582;BME280;47125;48.542;9.052;2023-03-01T19:23:53;96084.69;;;4.79;55.57
22582;BME280;47125;48.542;9.052;2023-03-01T19:33:56;96091.72;;;4.53;56.55
22582;BME280;47125;48.542;9.052;2023-03-01T19:44:13;96091.75;;;4.66;56.71
22582;BME280;47125;48.542;9.052;2023-03-01T19:54:15;96080.25;;;4.32;57.25
22582;BME280;47125;48.542;9.052;2023-03-01T20:04:21;96079.19;;;4.20;58.14
22582;BME280;47125;48.542;9.052;2023-03-01T20:14:24;96074.97;;;4.32;58.20
22582;BME280;47125;48.542;9.052;2023-03-01T20:24:28;96070.22;;;4.21;58.14
22582;BME280;47125;48.542;9.052;2023-03-01T20:34:32;96056.00;;;3.88;59.29
22582;BME280;47125;48.542;9.052;2023-03-01T20:44:35;96060.13;;;3.63;60.23
22582;BME280;47125;48.542;9.052;2023-03-01T20:54:43;96066.94;;;3.78;60.62
22582;BME280;47125;48.542;9.052;2023-03-01T21:04:47;96067.91;;;4.05;59.90
22582;BME280;47125;48.542;9.052;2023-03-01T21:14:49;96065.50;;;4.10;59.87
22582;BME280;47125;48.542;9.052;2023-03-01T21:24:53;96060.97;;;4.04;60.48
22582;BME280;47125;48.542;9.052;2023-03-01T21:34:55;96071.28;;;3.93;61.30
22582;BME280;47125;48.542;9.052;2023-03-01T21:45:00;96058.50;;;3.96;61.58
22582;BME280;47125;48.542;9.052;2023-03-01T21:55:03;96037.91;;;3.85;62.24
22582;BME280;47125;48.542;9.052;2023-03-01T22:05:08;96040.03;;;3.68;63.04
22582;BME280;47125;48.542;9.052;2023-03-01T22:15:10;96032.03;;;3.55;63.57
22582;BME280;47125;48.542;9.052;2023-03-01T22:25:14;96033.00;;;3.75;62.98
22582;BME280;47125;48.542;9.052;2023-03-01T22:35:17;96027.78;;;3.61;63.50
22582;BME280;47125;48.542;9.052;2023-03-01T22:45:21;96032.19;;;3.47;64.27
22582;BME280;47125;48.542;9.052;2023-03-01T22:55:23;96021.59;;;3.19;65.02
22582;BME280;47125;48.542;9.052;2023-03-01T23:05:27;96025.00;;;2.92;66.11
22582;BME280;47125;48.542;9.052;2023-03-01T23:15:32;96022.56;;;2.91;66.20
22582;BME280;47125;48.542;9.052;2023-03-01T23:25:35;96008.34;;;2.85;66.85
22582;BME280;47125;48.542;9.052;2023-03-01T23:35:38;96003.31;;;2.69;67.20
22582;BME280;47125;48.542;9.052;2023-03-01T23:45:42;96006.94;;;2.68;67.36
